Time;durP1;ratioP1;P1;durP2;ratioP2;P2;SDS_P1;SDS_P2;PMS_P1;PMS_P2;Temp;Humidity;BMP_temperature;BMP_pressure;BME280_temperature;BME280_humidity;BME280_pressure;Samples;Min_cycle;Max_cycle;Signal;HPM_P1;HPM_P2
2021/12/02 00:00:20;;;;;;;0.70;0.70;;;;;;;4.37;81.11;95291.50;29395;251;63004;-64
2021/12/02 00:00:52;;;;;;;0.70;0.70;;;;;;;4.36;81.27;95294.50;29395;342;63004;-64
2021/12/02 00:01:24;;;;;;;0.70;0.70;;;;;;;4.34;81.58;95296.66;29395;226;63004;-54
2021/12/02 00:01:58;;;;;;;0.70;0.70;;;;;;;4.34;81.51;95302.03;29395;194;63009;-64
2021/12/02 00:02:29;;;;;;;0.70;0.70;;;;;;;4.31;81.43;95295.34;29395;340;63004;-66
2021/12/02 00:03:04;;;;;;;0.70;0.70;;;;;;;4.32;81.77;95299.63;29395;202;63008;-66
2021/12/02 00:03:36;;;;;;;0.70;0.70;;;;;;;4.35;81.68;95300.94;29394;381;64005;-65
2021/12/02 00:04:07;;;;;;;0.70;0.70;;;;;;;4.34;81.78;95296.66;29395;202;63009;-54
2021/12/02 00:04:40;;;;;;;0.70;0.70;;;;;;;4.36;81.82;95294.50;29395;232;63012;-64
2021/12/02 00:05:11;;;;;;;0.70;0.70;;;;;;;4.38;81.55;95303.06;29395;234;63009;-55
2021/12/02 00:05:43;;;;;;;0.70;0.70;;;;;;;4.39;81.41;95288.53;29394;235;64005;-64
2021/12/02 00:06:17;;;;;;;0.70;0.70;;;;;;;4.38;81.48;95295.78;29395;222;63009;-66
2021/12/02 00:06:48;;;;;;;0.70;0.70;;;;;;;4.38;81.56;95293.09;29395;217;63005;-66
2021/12/02 00:07:19;;;;;;;0.70;0.70;;;;;;;4.36;81.38;95297.16;29394;203;64009;-65
2021/12/02 00:07:51;;;;;;;0.70;0.70;;;;;;;4.36;81.56;95299.84;29395;233;63004;-64
2021/12/02 00:08:22;;;;;;;0.70;0.70;;;;;;;4.36;81.94;95311.41;29395;216;63009;-64
2021/12/02 00:08:54;;;;;;;0.70;0.70;;;;;;;4.38;81.51;95293.09;29394;206;64004;-63
2021/12/02 00:09:29;;;;;;;0.70;0.70;;;;;;;4.38;81.28;95300.38;29394;272;64009;-65
2021/12/02 00:10:01;;;;;;;0.70;0.70;;;;;;;4.35;81.21;95295.56;29395;214;63014;-64
2021/12/02 00:10:34;;;;;;;0.70;0.70;;;;;;;4.32;81.63;95298.84;29395;239;63008;-64
2021/12/02 00:11:06;;;;;;;0.70;0.70;;;;;;;4.30;81.83;95291.06;29395;213;63005;-64
2021/12/02 00:11:37;;;;;;;0.60;0.60;;;;;;;4.28;81.88;95295.12;29395;269;63009;-64
2021/12/02 00:12:09;;;;;;;0.70;0.70;;;;;;;4.26;81.85;95300.00;29395;199;63005;-65
2021/12/02 00:12:40;;;;;;;0.70;0.70;;;;;;;4.24;82.15;95299.50;29395;218;63009;-63
2021/12/02 00:13:12;;;;;;;0.70;0.70;;;;;;;4.22;82.23;95293.63;29395;319;63005;-64
2021/12/02 00:14:45;;;;;;;0.70;0.70;;;;;;;4.21;82.30;95295.50;29394;198;64005;-54
2021/12/02 00:15:22;;;;;;;0.70;0.70;;;;;;;4.21;82.55;95297.38;29395;234;63009;-63
2021/12/02 00:16:10;;;;;;;0.70;0.70;;;;;;;4.21;82.43;95297.38;29394;232;64004;-66
2021/12/02 00:17:58;;;;;;;0.70;0.70;;;;;;;4.13;82.50;95290.00;29395;231;63004;-55
2021/12/02 00:21:02;;;;;;;0.70;0.70;;;;;;;4.10;82.51;95296.75;29395;218;63009;-63
2021/12/02 00:21:03;;;;;;;0.70;0.70;;;;;;;4.07;82.88;95301.91;29394;274;64005;-54
2021/12/02 00:21:36;;;;;;;0.70;0.70;;;;;;;4.06;82.88;95292.25;29395;278;63009;-63
2021/12/02 00:22:10;;;;;;;0.70;0.70;;;;;;;4.03;83.08;95286.38;29395;204;63005;-63
2021/12/02 00:23:22;;;;;;;0.70;0.70;;;;;;;4.07;82.96;95301.91;29394;254;64025;-63
2021/12/02 00:24:19;;;;;;;0.70;0.70;;;;;;;4.13;82.87;95298.06;29417;212;63004;-66
2021/12/02 00:24:56;;;;;;;0.70;0.70;;;;;;;4.11;82.75;95297.56;29395;217;63009;-66
2021/12/02 00:25:27;;;;;;;0.70;0.70;;;;;;;4.12;82.74;95294.59;29394;246;64004;-63
2021/12/02 00:26:02;;;;;;;0.70;0.70;;;;;;;4.10;82.79;95291.37;29395;209;63009;-65
2021/12/02 00:26:37;;;;;;;0.70;0.70;;;;;;;4.09;82.81;95297.06;29395;203;63005;-62
2021/12/02 00:27:10;;;;;;;0.70;0.70;;;;;;;4.06;83.03;95290.37;29395;245;63009;-64
2021/12/02 00:27:43;;;;;;;0.68;0.68;;;;;;;4.10;82.70;95291.37;29395;222;63005;-62
2021/12/02 00:28:17;;;;;;;0.70;0.70;;;;;;;4.10;82.74;95288.72;29395;235;63009;-63
2021/12/02 00:28:53;;;;;;;0.68;0.68;;;;;;;4.07;82.75;95283.91;29395;218;63005;-63
2021/12/02 00:29:24;;;;;;;0.70;0.70;;;;;;;4.09;82.67;95289.78;29394;204;64009;-63
2021/12/02 00:29:58;;;;;;;0.60;0.60;;;;;;;4.08;82.78;95288.19;29395;233;63005;-64
2021/12/02 00:30:31;;;;;;;0.70;0.70;;;;;;;4.09;83.09;95294.38;29395;218;63009;-69
2021/12/02 00:31:02;;;;;;;0.70;0.70;;;;;;;4.12;82.67;95289.22;29395;234;63004;-54
2021/12/02 00:31:36;;;;;;;0.70;0.70;;;;;;;4.14;82.57;95291.63;29395;238;63009;-63
2021/12/02 00:32:10;;;;;;;0.70;0.70;;;;;;;4.15;82.54;95290.53;29394;218;64004;-63
2021/12/02 00:32:43;;;;;;;0.70;0.70;;;;;;;4.14;82.68;95292.41;29395;227;63008;-70
2021/12/02 00:33:16;;;;;;;0.70;0.70;;;;;;;4.15;82.50;95291.31;29395;201;63004;-64
2021/12/02 00:33:51;;;;;;;0.70;0.70;;;;;;;4.14;82.43;95288.94;29395;220;63009;-63
2021/12/02 00:34:23;;;;;;;0.70;0.70;;;;;;;4.13;82.50;95285.44;29395;250;63005;-64
2021/12/02 00:34:56;;;;;;;0.60;0.60;;;;;;;4.14;82.49;95288.94;29395;236;63009;-63
2021/12/02 00:35:28;;;;;;;0.70;0.70;;;;;;;4.13;82.31;95293.50;29395;222;63005;-66
2021/12/02 00:35:59;;;;;;;0.70;0.70;;;;;;;4.11;82.33;95293.00;29395;218;63009;-65
2021/12/02 00:36:33;;;;;;;0.80;0.80;;;;;;;4.11;82.60;95286.81;29395;215;63005;-64
2021/12/02 00:37:04;;;;;;;0.70;0.70;;;;;;;4.16;82.45;95292.13;29394;197;64009;-64
2021/12/02 00:37:37;;;;;;;0.60;0.60;;;;;;;4.17;82.24;95289.13;29395;222;63004;-63
2021/12/02 00:38:11;;;;;;;0.70;0.70;;;;;;;4.24;81.90;95294.12;29395;287;63009;-64
2021/12/02 00:38:46;;;;;;;0.70;0.70;;;;;;;4.23;81.69;95295.22;29395;318;63004;-64
2021/12/02 00:39:19;;;;;;;0.70;0.70;;;;;;;4.20;81.54;95301.16;29395;203;63009;-63
2021/12/02 00:39:52;;;;;;;0.70;0.70;;;;;;;4.23;82.13;95300.59;29395;203;63004;-63
2021/12/02 00:40:24;;;;;;;0.70;0.70;;;;;;;4.22;81.83;95296.31;29395;229;63008;-63
2021/12/02 00:40:55;;;;;;;0.70;0.70;;;;;;;4.19;82.10;95299.56;29395;206;63004;-64
2021/12/02 00:41:28;;;;;;;0.70;0.70;;;;;;;4.22;81.96;95298.97;29395;214;63009;-65
2021/12/02 00:42:00;;;;;;;0.70;0.70;;;;;;;4.24;81.70;95296.81;29395;219;63005;-64
2021/12/02 00:42:35;;;;;;;0.70;0.70;;;;;;;4.20;81.51;95299.28;29394;235;64009;-63
2021/12/02 00:43:06;;;;;;;0.70;0.70;;;;;;;4.17;81.78;95297.16;29395;276;63005;-64
2021/12/02 00:43:40;;;;;;;0.70;0.70;;;;;;;4.13;82.12;95300.75;29395;278;63009;-64
2021/12/02 00:44:12;;;;;;;0.70;0.70;;;;;;;4.10;82.01;95304.00;29395;205;63005;-65
2021/12/02 00:44:44;;;;;;;0.70;0.70;;;;;;;4.09;82.21;95305.91;29395;215;63016;-69
2021/12/02 00:45:15;;;;;;;0.70;0.70;;;;;;;4.14;82.01;95305.03;29395;218;63004;-63
2021/12/02 00:45:47;;;;;;;0.70;0.70;;;;;;;4.12;82.06;95305.31;29395;229;63009;-54
2021/12/02 00:46:23;;;;;;;0.70;0.70;;;;;;;4.11;81.91;95298.34;29394;270;64004;-63
2021/12/02 00:46:56;;;;;;;0.70;0.70;;;;;;;4.10;81.95;95304.00;29395;232;63013;-54
2021/12/02 00:47:28;;;;;;;0.70;0.70;;;;;;;4.10;82.10;95296.75;29395;374;63004;-64
2021/12/02 00:48:00;;;;;;;0.70;0.70;;;;;;;4.11;82.15;95297.56;29395;240;63009;-64
2021/12/02 00:48:35;;;;;;;0.70;0.70;;;;;;;4.11;81.94;95305.63;29395;215;63005;-53
2021/12/02 00:49:14;;;;;;;0.70;0.70;;;;;;;4.08;81.99;95298.13;29395;226;63009;-63
2021/12/02 00:49:46;;;;;;;0.70;0.70;;;;;;;4.06;82.05;95300.31;29394;234;64005;-64
2021/12/02 00:50:19;;;;;;;0.60;0.60;;;;;;;4.09;82.09;95303.22;29395;197;63009;-65
2021/12/02 00:50:51;;;;;;;0.70;0.70;;;;;;;4.11;81.63;95302.94;29394;217;64005;-65
2021/12/02 00:51:26;;;;;;;0.70;0.70;;;;;;;4.09;81.60;95303.22;29395;253;63009;-64
2021/12/02 00:51:59;;;;;;;0.70;0.70;;;;;;;4.06;81.57;95294.94;29395;202;63004;-63
2021/12/02 00:52:31;;;;;;;0.70;0.70;;;;;;;4.06;82.14;95300.31;29395;219;63009;-53
2021/12/02 00:53:06;;;;;;;0.70;0.70;;;;;;;4.06;81.93;95305.69;29395;210;63004;-67
2021/12/02 00:53:42;;;;;;;0.65;0.65;;;;;;;4.05;81.89;95304.88;29395;235;63009;-64
2021/12/02 00:54:14;;;;;;;0.70;0.70;;;;;;;4.06;81.97;95301.09;29395;211;63008;-62
2021/12/02 00:54:48;;;;;;;0.70;0.70;;;;;;;4.11;81.30;95302.94;29395;244;63015;-54
2021/12/02 00:55:24;;;;;;;0.77;0.77;;;;;;;4.09;81.33;95305.09;29394;212;64005;-64
2021/12/02 00:55:55;;;;;;;0.70;0.70;;;;;;;4.06;81.44;95308.38;29394;255;64009;-63
2021/12/02 00:56:27;;;;;;;0.70;0.70;;;;;;;4.07;81.48;95301.91;29395;258;63005;-68
2021/12/02 00:57:01;;;;;;;0.70;0.70;;;;;;;4.06;81.27;95308.38;29395;197;63009;-66
2021/12/02 00:57:32;;;;;;;0.70;0.70;;;;;;;4.02;81.04;95306.25;29395;233;63005;-64
2021/12/02 00:58:05;;;;;;;0.70;0.70;;;;;;;4.02;81.48;95300.09;29395;199;63009;-64
2021/12/02 00:58:37;;;;;;;0.60;0.60;;;;;;;4.04;81.16;95304.09;29395;235;63005;-62
2021/12/02 00:59:09;;;;;;;0.70;0.70;;;;;;;4.03;81.21;95307.84;29395;222;63009;-62
2021/12/02 00:59:41;;;;;;;0.70;0.70;;;;;;;4.07;81.23;95307.28;29395;202;63004;-63
2021/12/02 01:00:13;;;;;;;0.70;0.70;;;;;;;3.98;81.06;95299.88;29395;232;63009;-64
2021/12/02 01:00:47;;;;;;;0.70;0.70;;;;;;;3.99;81.17;95306.03;29395;197;63004;-61
2021/12/02 01:01:22;;;;;;;0.70;0.70;;;;;;;3.95;81.32;95299.66;29394;259;64025;-64
2021/12/02 01:01:53;;;;;;;0.70;0.70;;;;;;;3.91;81.51;95298.63;29395;203;63004;-66
2021/12/02 01:02:26;;;;;;;0.70;0.70;;;;;;;3.91;81.85;95309.34;29395;201;63008;-64
2021/12/02 01:03:00;;;;;;;0.70;0.70;;;;;;;3.86;81.55;95307.53;29394;267;64005;-64
2021/12/02 01:03:37;;;;;;;0.70;0.70;;;;;;;3.84;81.67;95304.34;29395;218;63009;-67
2021/12/02 01:04:13;;;;;;;0.70;0.70;;;;;;;3.90;81.67;95300.50;29395;317;63010;-64
2021/12/02 01:04:45;;;;;;;0.70;0.70;;;;;;;3.93;81.54;95299.13;29395;204;63009;-64
2021/12/02 01:05:17;;;;;;;0.70;0.70;;;;;;;3.91;81.34;95302.09;29395;217;63005;-65
2021/12/02 01:05:50;;;;;;;0.70;0.70;;;;;;;3.87;81.43;95298.41;29395;216;63009;-64
2021/12/02 01:06:22;;;;;;;0.70;0.70;;;;;;;3.85;81.49;95294.41;29395;229;63005;-64
2021/12/02 01:06:54;;;;;;;0.70;0.70;;;;;;;3.85;81.48;95294.41;29395;197;63009;-63
2021/12/02 01:07:26;;;;;;;0.70;0.70;;;;;;;3.82;81.37;95298.47;29395;206;63004;-63
2021/12/02 01:08:01;;;;;;;0.70;0.70;;;;;;;3.81;81.74;95299.53;29394;214;64009;-66
2021/12/02 01:08:34;;;;;;;0.70;0.70;;;;;;;3.79;81.93;95295.59;29395;223;63004;-66
2021/12/02 01:09:07;;;;;;;0.75;0.75;;;;;;;3.76;82.18;95294.28;29395;203;63009;-65
2021/12/02 01:09:39;;;;;;;0.80;0.80;;;;;;;3.78;82.01;95292.09;29394;256;64004;-65
2021/12/02 01:10:11;;;;;;;0.70;0.70;;;;;;;3.76;81.71;95291.59;29394;271;64008;-63
2021/12/02 01:10:42;;;;;;;0.70;0.70;;;;;;;3.75;81.89;95279.25;29394;209;64005;-63
2021/12/02 01:11:13;;;;;;;0.70;0.70;;;;;;;3.74;81.97;95293.75;29395;205;63017;-64
2021/12/02 01:11:45;;;;;;;0.70;0.70;;;;;;;3.73;82.10;95291.37;29395;233;63005;-64
2021/12/02 01:12:17;;;;;;;0.70;0.70;;;;;;;3.80;82.06;95291.81;29395;216;63009;-63
2021/12/02 01:12:49;;;;;;;0.80;0.80;;;;;;;3.81;81.37;95283.44;29395;224;63005;-66
2021/12/02 01:13:21;;;;;;;0.70;0.70;;;;;;;3.79;81.59;95288.34;29395;197;63009;-64
2021/12/02 01:13:53;;;;;;;0.70;0.70;;;;;;;3.75;81.62;95292.69;29395;212;63018;-60
2021/12/02 01:14:24;;;;;;;0.70;0.70;;;;;;;3.73;81.91;95297.53;29395;196;63009;-64
2021/12/02 01:14:57;;;;;;;0.70;0.70;;;;;;;3.69;81.82;95294.62;29394;245;64004;-62
2021/12/02 01:15:29;;;;;;;0.75;0.75;;;;;;;3.69;82.05;95291.16;29395;227;63009;-63
2021/12/02 01:16:01;;;;;;;0.70;0.70;;;;;;;3.69;82.25;95294.62;29395;198;63004;-65
2021/12/02 01:16:32;;;;;;;0.80;0.80;;;;;;;3.70;82.05;95295.44;29395;216;63019;-64
2021/12/02 01:17:04;;;;;;;0.70;0.70;;;;;;;3.70;81.98;95293.53;29395;219;63004;-67
2021/12/02 01:17:35;;;;;;;0.70;0.70;;;;;;;3.68;82.09;95294.91;29395;264;63008;-64
2021/12/02 01:18:06;;;;;;;0.70;0.70;;;;;;;3.67;82.20;95287.94;29395;215;63005;-64
2021/12/02 01:18:37;;;;;;;0.70;0.70;;;;;;;3.69;82.30;95285.78;29395;294;63009;-63
2021/12/02 01:19:10;;;;;;;0.70;0.70;;;;;;;3.69;81.97;95291.94;29395;216;63005;-65
2021/12/02 01:19:42;;;;;;;0.70;0.70;;;;;;;3.69;82.07;95291.16;29394;221;64009;-66
2021/12/02 01:20:13;;;;;;;0.70;0.70;;;;;;;3.71;82.27;95288.97;29395;224;63005;-72
2021/12/02 01:20:47;;;;;;;0.80;0.80;;;;;;;3.73;82.09;95286.81;29395;199;63009;-64
2021/12/02 01:21:21;;;;;;;0.70;0.70;;;;;;;3.73;82.11;95283.31;29395;202;63005;-66
2021/12/02 01:21:54;;;;;;;0.70;0.70;;;;;;;3.79;81.83;95291.03;29395;199;63009;-67
2021/12/02 01:22:32;;;;;;;0.70;0.70;;;;;;;3.85;81.26;95284.47;29395;208;63004;-64
2021/12/02 01:23:04;;;;;;;0.70;0.70;;;;;;;3.85;81.27;95291.72;29395;289;63009;-63
2021/12/02 01:23:36;;;;;;;0.70;0.70;;;;;;;3.81;81.29;95286.12;29394;202;64004;-63
2021/12/02 01:24:11;;;;;;;0.70;0.70;;;;;;;3.79;81.40;95285.66;29395;206;63009;-64
2021/12/02 01:24:48;;;;;;;0.70;0.70;;;;;;;3.75;81.43;95284.63;29395;257;63004;-63
2021/12/02 01:25:22;;;;;;;0.70;0.70;;;;;;;3.74;81.60;95287.59;29394;298;64008;-65
2021/12/02 01:25:57;;;;;;;0.80;0.80;;;;;;;3.71;81.55;95283.59;29395;200;63005;-66
2021/12/02 01:26:30;;;;;;;0.70;0.70;;;;;;;3.67;81.80;95287.94;29395;198;63009;-64
2021/12/02 01:27:07;;;;;;;0.70;0.70;;;;;;;3.69;82.03;95286.56;29395;208;63005;-67
2021/12/02 01:27:42;;;;;;;0.77;0.77;;;;;;;3.73;81.91;95291.37;29395;222;63009;-64
2021/12/02 01:28:13;;;;;;;0.70;0.70;;;;;;;3.71;81.55;95294.34;29395;200;63005;-64
2021/12/02 01:28:48;;;;;;;0.70;0.70;;;;;;;3.69;81.75;95297.31;29395;212;63009;-66
2021/12/02 01:29:22;;;;;;;0.70;0.70;;;;;;;3.67;81.61;95287.94;29395;284;63008;-65
2021/12/02 01:29:53;;;;;;;0.70;0.70;;;;;;;3.65;81.85;95295.47;29395;268;63009;-64
2021/12/02 01:30:27;;;;;;;0.73;0.73;;;;;;;3.64;82.05;95296.56;29394;206;64004;-64
2021/12/02 01:30:59;;;;;;;0.70;0.70;;;;;;;3.62;82.20;95296.06;29395;232;63009;-65
2021/12/02 01:31:34;;;;;;;0.70;0.70;;;;;;;3.61;82.26;95300.63;29395;202;63004;-62
2021/12/02 01:32:09;;;;;;;0.70;0.70;;;;;;;3.62;82.43;95306.78;29395;213;63008;-63
2021/12/02 01:32:42;;;;;;;0.70;0.70;;;;;;;3.62;82.37;95306.78;29395;224;63004;-63
2021/12/02 01:33:18;;;;;;;0.70;0.70;;;;;;;3.64;82.56;95305.41;29395;222;63009;-63
2021/12/02 01:33:50;;;;;;;0.70;0.70;;;;;;;3.66;82.41;95313.97;29395;204;63016;-63
2021/12/02 01:34:27;;;;;;;0.70;0.70;;;;;;;3.65;82.37;95308.91;29395;233;63009;-63
2021/12/02 01:35:04;;;;;;;0.70;0.70;;;;;;;3.65;82.53;95316.94;29394;246;64005;-63
2021/12/02 01:35:35;;;;;;;0.70;0.70;;;;;;;3.63;82.44;95314.53;29395;220;63009;-62
2021/12/02 01:36:07;;;;;;;0.70;0.70;;;;;;;3.63;82.50;95313.75;29395;219;63005;-66
2021/12/02 01:36:41;;;;;;;0.70;0.70;;;;;;;3.61;82.53;95307.88;29395;226;63009;-63
2021/12/02 01:37:14;;;;;;;0.62;0.62;;;;;;;3.58;82.60;95316.47;29394;228;64004;-63
2021/12/02 01:37:46;;;;;;;0.70;0.70;;;;;;;3.58;82.91;95319.16;29395;219;63020;-63
2021/12/02 01:38:17;;;;;;;0.70;0.70;;;;;;;3.57;83.01;95315.69;29395;214;63004;-63
2021/12/02 01:38:49;;;;;;;0.70;0.70;;;;;;;3.58;83.00;95316.47;29395;218;63009;-65
2021/12/02 01:39:23;;;;;;;0.70;0.70;;;;;;;3.58;83.06;95322.66;29394;235;64004;-64
2021/12/02 01:39:58;;;;;;;0.70;0.70;;;;;;;3.57;83.03;95321.06;29394;240;64009;-62
2021/12/02 01:40:29;;;;;;;0.70;0.70;;;;;;;3.56;82.89;95318.66;29395;202;63005;-64
2021/12/02 01:41:03;;;;;;;0.70;0.70;;;;;;;3.55;83.32;95320.53;29395;223;63009;-63
2021/12/02 01:41:52;;;;;;;0.70;0.70;;;;;;;3.54;83.16;95321.63;29395;207;63009;-65
2021/12/02 01:42:27;;;;;;;0.70;0.70;;;;;;;3.54;83.33;95318.12;29395;196;63009;-65
2021/12/02 01:42:59;;;;;;;0.70;0.70;;;;;;;3.55;83.28;95322.41;29395;220;63005;-65
2021/12/02 01:43:49;;;;;;;0.70;0.70;;;;;;;3.55;83.47;95323.22;29395;317;63009;-65
2021/12/02 01:44:22;;;;;;;0.70;0.70;;;;;;;3.55;83.28;95320.53;29395;208;63004;-65
2021/12/02 01:44:56;;;;;;;0.70;0.70;;;;;;;3.55;83.33;95328.59;29394;225;64009;-65
2021/12/02 01:45:29;;;;;;;0.70;0.70;;;;;;;3.56;83.41;95326.69;29395;215;63015;-64
2021/12/02 01:46:03;;;;;;;0.70;0.70;;;;;;;3.62;83.29;95322.88;29395;206;63009;-65
2021/12/02 01:46:37;;;;;;;0.70;0.70;;;;;;;3.65;82.78;95322.31;29395;196;63016;-64
2021/12/02 01:47:14;;;;;;;0.70;0.70;;;;;;;3.72;82.53;95328.13;29395;224;63008;-64
2021/12/02 01:47:49;;;;;;;0.70;0.70;;;;;;;3.72;82.43;95322.75;29395;229;63016;-64
2021/12/02 01:48:25;;;;;;;0.70;0.70;;;;;;;3.70;82.50;95324.94;29395;405;63026;-62
2021/12/02 01:49:04;;;;;;;0.70;0.70;;;;;;;3.65;82.95;95335.72;29395;197;63005;-63
2021/12/02 01:49:40;;;;;;;0.70;0.70;;;;;;;3.63;83.15;95336.00;29395;232;63009;-65
2021/12/02 01:50:16;;;;;;;0.70;0.70;;;;;;;3.64;83.18;95328.75;29394;218;64005;-66
2021/12/02 01:51:01;;;;;;;0.70;0.70;;;;;;;3.68;82.81;95327.09;29395;269;63009;-65
2021/12/02 01:51:44;;;;;;;0.70;0.70;;;;;;;3.67;82.68;95342.41;29395;210;63004;-64
2021/12/02 01:52:20;;;;;;;0.70;0.70;;;;;;;3.67;82.72;95330.88;29395;196;63009;-65
2021/12/02 01:53:00;;;;;;;0.70;0.70;;;;;;;3.69;82.62;95339.44;29394;268;64004;-64
2021/12/02 01:53:34;;;;;;;0.70;0.70;;;;;;;3.68;82.68;95335.16;29417;221;63009;-64
2021/12/02 01:54:14;;;;;;;0.70;0.70;;;;;;;3.71;82.86;95342.63;29395;198;63004;-64
2021/12/02 01:54:47;;;;;;;0.70;0.70;;;;;;;3.83;82.33;95331.47;29376;212;126008;-66
2021/12/02 01:55:18;;;;;;;0.60;0.60;;;;;;;3.84;81.75;95336.53;29371;249;64005;-62
2021/12/02 01:55:53;;;;;;;0.70;0.70;;;;;;;3.86;81.67;95334.38;29395;215;63009;-56
2021/12/02 01:56:30;;;;;;;0.70;0.70;;;;;;;3.80;82.29;95334.75;29395;238;63005;-54
2021/12/02 01:57:05;;;;;;;0.70;0.70;;;;;;;3.75;82.57;95335.59;29395;204;63009;-65
2021/12/02 01:57:46;;;;;;;0.70;0.70;;;;;;;3.74;82.94;95331.31;29394;213;64005;-55
2021/12/02 01:58:23;;;;;;;0.70;0.70;;;;;;;3.69;83.13;95339.44;29417;247;63009;-57
2021/12/02 01:59:08;;;;;;;0.70;0.70;;;;;;;3.69;83.10;95336.75;29395;199;63005;-55
2021/12/02 01:59:39;;;;;;;0.70;0.70;;;;;;;3.63;83.35;95329.84;29395;244;63009;-54
2021/12/02 02:00:20;;;;;;;0.70;0.70;;;;;;;3.63;83.92;95341.38;29394;252;64004;-56
2021/12/02 02:00:56;;;;;;;0.70;0.70;;;;;;;3.66;83.43;95330.06;29417;239;63009;-65
2021/12/02 02:01:27;;;;;;;0.70;0.70;;;;;;;3.65;83.36;95333.03;29395;281;63007;-63
2021/12/02 02:01:59;;;;;;;0.70;0.70;;;;;;;3.61;83.30;95326.63;29395;196;63008;-54
2021/12/02 02:02:34;;;;;;;0.70;0.70;;;;;;;3.60;83.61;95333.09;29394;219;64005;-64
2021/12/02 02:03:06;;;;;;;0.70;0.70;;;;;;;3.57;83.82;95336.34;29395;203;63009;-56
2021/12/02 02:03:37;;;;;;;0.70;0.70;;;;;;;3.61;84.04;95330.13;29395;199;63005;-56
2021/12/02 02:04:09;;;;;;;0.70;0.70;;;;;;;3.64;83.99;95329.56;29395;208;63009;-55
2021/12/02 02:04:41;;;;;;;0.70;0.70;;;;;;;3.65;83.59;95335.72;29395;227;63005;-55
2021/12/02 02:05:14;;;;;;;0.70;0.70;;;;;;;3.62;83.55;95338.97;29395;216;63009;-66
2021/12/02 02:05:58;;;;;;;0.70;0.70;;;;;;;3.56;83.75;95332.06;29394;251;64005;-64
2021/12/02 02:06:57;;;;;;;0.70;0.70;;;;;;;3.48;84.00;95338.03;29395;322;63009;-55
2021/12/02 02:07:32;;;;;;;0.70;0.70;;;;;;;3.48;84.10;95332.69;29394;329;64004;-57
2021/12/02 02:08:23;;;;;;;0.70;0.70;;;;;;;3.40;84.62;95326.09;29373;240;63009;-54
2021/12/02 02:08:59;;;;;;;0.70;0.70;;;;;;;3.34;84.73;95333.38;29395;274;63004;-54
2021/12/02 02:09:34;;;;;;;0.70;0.70;;;;;;;3.36;84.89;95330.41;29394;237;64008;-59
2021/12/02 02:10:06;;;;;;;0.70;0.70;;;;;;;3.44;84.30;95334.38;29395;197;63005;-54
2021/12/02 02:10:41;;;;;;;0.70;0.70;;;;;;;3.52;83.88;95329.16;29395;219;63009;-63
2021/12/02 02:11:13;;;;;;;0.70;0.70;;;;;;;3.55;82.88;95325.09;29395;199;63005;-66
2021/12/02 02:11:47;;;;;;;0.70;0.70;;;;;;;3.54;83.44;95331.53;29395;237;63009;-55
2021/12/02 02:12:21;;;;;;;1.67;1.62;;;;;;;3.39;83.27;95312.97;29395;225;63011;-67
2021/12/02 02:12:57;;;;;;;0.70;0.70;;;;;;;3.43;83.60;95330.09;29394;248;64009;-55
2021/12/02 02:13:29;;;;;;;0.70;0.70;;;;;;;3.43;83.60;95330.09;29395;233;63005;-70
2021/12/02 02:14:00;;;;;;;0.70;0.70;;;;;;;3.41;83.81;95329.56;29395;213;63009;-66
2021/12/02 02:14:32;;;;;;;0.70;0.70;;;;;;;3.38;83.74;95325.56;29394;246;64004;-54
2021/12/02 02:15:05;;;;;;;0.70;0.70;;;;;;;3.36;84.02;95331.22;29395;254;63009;-63
2021/12/02 02:15:38;;;;;;;0.70;0.70;;;;;;;3.30;84.20;95337.72;29395;219;63004;-67
2021/12/02 02:16:09;;;;;;;0.70;0.70;;;;;;;3.25;84.55;95328.94;29395;225;63009;-65
2021/12/02 02:16:41;;;;;;;0.70;0.70;;;;;;;3.22;84.74;95329.50;29395;237;63004;-66
2021/12/02 02:17:29;;;;;;;0.70;0.70;;;;;;;3.17;85.28;95337.56;29395;236;63008;-54
2021/12/02 02:18:12;;;;;;;0.70;0.70;;;;;;;3.12;85.71;95332.28;29395;242;64005;-55
2021/12/02 02:18:44;;;;;;;0.70;0.70;;;;;;;3.09;85.75;95330.97;29396;203;63009;-54
2021/12/02 02:19:16;;;;;;;0.70;0.70;;;;;;;3.09;86.34;95330.97;29396;215;63005;-55
2021/12/02 02:19:49;;;;;;;0.70;0.70;;;;;;;3.09;86.39;95322.13;29396;234;63009;-54
2021/12/02 02:20:24;;;;;;;0.70;0.70;;;;;;;3.08;86.52;95323.22;29396;225;63005;-54
2021/12/02 02:21:01;;;;;;;0.70;0.70;;;;;;;3.07;86.50;95311.72;29395;196;63009;-54
2021/12/02 02:21:36;;;;;;;0.70;0.70;;;;;;;3.10;86.48;95321.84;29396;232;63005;-60
2021/12/02 02:22:07;;;;;;;0.70;0.70;;;;;;;3.14;85.52;95317.50;29396;208;63009;-71
2021/12/02 02:22:40;;;;;;;0.70;0.70;;;;;;;3.12;85.38;95318.91;29396;202;63004;-55
2021/12/02 02:23:12;;;;;;;0.70;0.70;;;;;;;3.08;85.40;95312.50;29395;220;64009;-55
2021/12/02 02:23:50;;;;;;;0.70;0.70;;;;;;;3.03;86.05;95313.34;29396;202;63004;-69
2021/12/02 02:24:22;;;;;;;0.70;0.70;;;;;;;2.95;86.37;95314.75;29396;245;63008;-54
2021/12/02 02:24:54;;;;;;;0.70;0.70;;;;;;;2.94;86.38;95312.34;29396;245;63000;-54
2021/12/02 02:25:25;;;;;;;0.70;0.70;;;;;;;2.92;86.27;95317.19;29396;241;63009;-68
2021/12/02 02:25:58;;;;;;;0.70;0.70;;;;;;;2.90;86.64;95300.59;29396;232;63005;-67
2021/12/02 02:26:37;;;;;;;0.70;0.70;;;;;;;2.88;86.76;95305.44;29396;219;63009;-67
2021/12/02 02:27:08;;;;;;;0.70;0.70;;;;;;;2.86;87.07;95312.97;29396;283;63005;-65
2021/12/02 02:27:39;;;;;;;0.80;0.80;;;;;;;2.88;86.88;95308.13;29395;215;64009;-69
2021/12/02 02:28:11;;;;;;;0.73;0.73;;;;;;;2.90;86.86;95311.31;29396;222;63005;-69
2021/12/02 02:28:42;;;;;;;0.80;0.80;;;;;;;2.92;86.72;95314.53;29396;196;63009;-68
2021/12/02 02:29:14;;;;;;;0.80;0.80;;;;;;;2.90;86.45;95314.00;29396;222;63004;-69
2021/12/02 02:29:46;;;;;;;0.70;0.70;;;;;;;2.96;86.40;95320.91;29396;217;63009;-67
2021/12/02 02:30:17;;;;;;;0.75;0.75;;;;;;;2.96;86.37;95315.56;29396;209;63004;-55
2021/12/02 02:30:49;;;;;;;0.70;0.70;;;;;;;2.95;86.39;95322.00;29374;220;63009;-66
2021/12/02 02:31:21;;;;;;;0.70;0.70;;;;;;;2.90;86.39;95311.31;29396;198;63004;-69
2021/12/02 02:31:53;;;;;;;0.80;0.80;;;;;;;2.87;86.69;95319.94;29374;267;63020;-69
2021/12/02 02:32:25;;;;;;;0.73;0.73;;;;;;;2.83;86.82;95314.31;29372;217;64011;-68
2021/12/02 02:32:57;;;;;;;0.70;0.70;;;;;;;2.81;86.94;95323.72;29396;205;63024;-68
2021/12/02 02:33:37;;;;;;;0.77;0.77;;;;;;;2.87;87.04;95317.25;29396;202;63005;-55
2021/12/02 02:34:09;;;;;;;0.80;0.80;;;;;;;2.86;87.01;95327.16;29396;228;63009;-68
2021/12/02 02:34:41;;;;;;;0.70;0.70;;;;;;;2.85;86.92;95319.41;29396;222;63005;-70
2021/12/02 02:35:12;;;;;;;0.70;0.70;;;;;;;2.83;87.04;95329.59;29396;225;63009;-67
2021/12/02 02:35:45;;;;;;;0.80;0.80;;;;;;;2.81;87.42;95324.53;29395;249;64005;-67
2021/12/02 02:36:21;;;;;;;0.77;0.77;;;;;;;2.78;87.25;95318.94;29395;249;64009;-68
2021/12/02 02:36:57;;;;;;;0.80;0.80;;;;;;;2.75;87.24;95314.16;29395;303;64004;-67
2021/12/02 02:37:33;;;;;;;0.80;0.80;;;;;;;2.73;87.78;95316.31;29372;199;64009;-67
2021/12/02 02:38:04;;;;;;;0.70;0.70;;;;;;;2.73;87.80;95313.66;29395;232;64004;-71
2021/12/02 02:38:36;;;;;;;0.77;0.77;;;;;;;2.71;87.93;95318.47;29396;208;63008;-67
2021/12/02 02:39:08;;;;;;;0.70;0.70;;;;;;;2.69;87.96;95322.25;29396;202;63004;-68
2021/12/02 02:39:40;;;;;;;0.70;0.70;;;;;;;2.68;88.00;95327.88;29396;221;63009;-68
2021/12/02 02:40:14;;;;;;;0.70;0.70;;;;;;;2.64;87.88;95319.59;29396;223;63005;-68
2021/12/02 02:40:48;;;;;;;0.70;0.70;;;;;;;2.63;88.10;95328.72;29396;210;63009;-69
2021/12/02 02:41:21;;;;;;;0.70;0.70;;;;;;;2.64;88.64;95326.84;29396;216;63009;-67
2021/12/02 02:42:00;;;;;;;0.70;0.70;;;;;;;2.69;88.20;95321.44;29396;293;63009;-69
2021/12/02 02:42:32;;;;;;;0.70;0.70;;;;;;;2.79;87.56;95331.25;29395;277;64005;-68
2021/12/02 02:43:08;;;;;;;0.70;0.70;;;;;;;2.80;87.17;95327.47;29374;220;63009;-70
2021/12/02 02:43:46;;;;;;;0.70;0.70;;;;;;;2.84;86.94;95329.31;29374;207;63004;-68
2021/12/02 02:44:18;;;;;;;0.70;0.70;;;;;;;2.85;86.74;95324.75;29396;222;63009;-54
2021/12/02 02:44:49;;;;;;;0.70;0.70;;;;;;;2.82;86.61;95319.97;29396;212;63004;-68
2021/12/02 02:45:20;;;;;;;0.70;0.70;;;;;;;2.79;86.75;95320.53;29396;210;63009;-67
2021/12/02 02:45:52;;;;;;;0.70;0.70;;;;;;;2.76;86.79;95321.13;29395;243;64004;-67
2021/12/02 02:46:32;;;;;;;0.70;0.70;;;;;;;2.73;87.15;95319.00;29374;215;63016;-54
2021/12/02 02:47:04;;;;;;;0.70;0.70;;;;;;;2.71;87.02;95321.16;29418;196;63005;-67
2021/12/02 02:47:36;;;;;;;0.70;0.70;;;;;;;2.69;87.00;95322.25;29395;259;64009;-67
2021/12/02 02:48:07;;;;;;;0.70;0.70;;;;;;;2.67;87.20;95327.06;29396;290;63010;-69
2021/12/02 02:48:38;;;;;;;0.70;0.70;;;;;;;2.67;87.19;95321.72;29396;260;63021;-70